sensor_id;sensor_type;location;lat;lon;timestamp;pressure;altitude;pressure_sealevel;temperature;humidity
42001;BME280;27689;48.390;10.856;2023-04-22T00:02:13;95610.66;;;10.83;88.48
42001;BME280;27689;48.390;10.856;2023-04-22T00:04:59;95612.31;;;10.84;88.21
42001;BME280;27689;48.390;10.856;2023-04-22T00:07:43;95602.19;;;10.81;88.46
42001;BME280;27689;48.390;10.856;2023-04-22T00:10:27;95613.47;;;10.82;88.56
42001;BME280;27689;48.390;10.856;2023-04-22T00:13:11;95609.38;;;10.79;89.18
42001;BME280;27689;48.390;10.856;2023-04-22T00:15:55;95599.88;;;10.78;89.44
42001;BME280;27689;48.390;10.856;2023-04-22T00:18:39;95599.53;;;10.73;89.59
42001;BME280;27689;48.390;10.856;2023-04-22T00:21:24;95595.91;;;10.66;91.16
42001;BME280;27689;48.390;10.856;2023-04-22T00:24:08;95596.19;;;10.55;92.37
42001;BME280;27689;48.390;10.856;2023-04-22T00:26:52;95595.72;;;10.51;92.35
42001;BME280;27689;48.390;10.856;2023-04-22T00:29:36;95587.34;;;10.48;92.14
42001;BME280;27689;48.390;10.856;2023-04-22T00:32:20;95589.81;;;10.49;92.20
42001;BME280;27689;48.390;10.856;2023-04-22T00:35:05;95593.34;;;10.40;93.61
42001;BME280;27689;48.390;10.856;2023-04-22T00:37:49;95583.88;;;10.39;92.36
42001;BME280;27689;48.390;10.856;2023-04-22T00:40:34;95585.84;;;10.37;92.59
42001;BME280;27689;48.390;10.856;2023-04-22T00:43:18;95586.97;;;10.35;93.34
42001;BME280;27689;48.390;10.856;2023-04-22T00:46:02;95584.31;;;10.27;94.45
42001;BME280;27689;48.390;10.856;2023-04-22T00:48:46;95593.50;;;10.31;93.98
42001;BME280;27689;48.390;10.856;2023-04-22T00:51:31;95588.06;;;10.24;93.64
42001;BME280;27689;48.390;10.856;2023-04-22T00:54:15;95580.69;;;10.19;93.44
42001;BME280;27689;48.390;10.856;2023-04-22T00:56:59;95584.81;;;10.22;93.84
42001;BME280;27689;48.390;10.856;2023-04-22T00:59:46;95584.13;;;10.20;94.22
42001;BME280;27689;48.390;10.856;2023-04-22T01:02:30;95576.06;;;10.13;94.01
42001;BME280;27689;48.390;10.856;2023-04-22T01:05:14;95580.47;;;10.13;94.10
42001;BME280;27689;48.390;10.856;2023-04-22T01:07:59;95587.97;;;10.08;95.14
42001;BME280;27689;48.390;10.856;2023-04-22T01:10:43;95591.25;;;10.10;95.18
42001;BME280;27689;48.390;10.856;2023-04-22T01:13:27;95582.41;;;10.11;94.77
42001;BME280;27689;48.390;10.856;2023-04-22T01:16:13;95587.31;;;10.06;94.76
42001;BME280;27689;48.390;10.856;2023-04-22T01:18:57;95589.41;;;10.02;95.86
42001;BME280;27689;48.390;10.856;2023-04-22T01:21:42;95596.28;;;10.03;95.81
42001;BME280;27689;48.390;10.856;2023-04-22T01:24:28;95601.00;;;10.00;95.83
42001;BME280;27689;48.390;10.856;2023-04-22T01:27:12;95593.16;;;10.00;95.79
42001;BME280;27689;48.390;10.856;2023-04-22T01:29:56;95595.63;;;10.01;95.34
42001;BME280;27689;48.390;10.856;2023-04-22T01:32:40;95597.88;;;9.96;96.10
42001;BME280;27689;48.390;10.856;2023-04-22T01:35:24;95593.81;;;9.94;96.58
42001;BME280;27689;48.390;10.856;2023-04-22T01:38:09;95591.00;;;9.95;96.66
42001;BME280;27689;48.390;10.856;2023-04-22T01:40:54;95593.91;;;9.84;98.61
42001;BME280;27689;48.390;10.856;2023-04-22T01:43:38;95599.28;;;9.82;98.96
42001;BME280;27689;48.390;10.856;2023-04-22T01:46:22;95585.38;;;9.82;98.39
42001;BME280;27689;48.390;10.856;2023-04-22T01:49:06;95584.41;;;9.83;97.43
42001;BME280;27689;48.390;10.856;2023-04-22T01:51:50;95583.44;;;9.84;96.83
42001;BME280;27689;48.390;10.856;2023-04-22T01:54:34;95589.28;;;9.78;97.41
42001;BME280;27689;48.390;10.856;2023-04-22T01:57:18;95589.59;;;9.75;96.98
42001;BME280;27689;48.390;10.856;2023-04-22T02:00:03;95596.63;;;9.74;97.97
42001;BME280;27689;48.390;10.856;2023-04-22T02:02:48;95593.19;;;9.74;98.58
42001;BME280;27689;48.390;10.856;2023-04-22T02:05:31;95599.69;;;9.70;98.55
42001;BME280;27689;48.390;10.856;2023-04-22T02:08:15;95600.00;;;9.67;98.47
42001;BME280;27689;48.390;10.856;2023-04-22T02:10:59;95602.75;;;9.65;98.68
42001;BME280;27689;48.390;10.856;2023-04-22T02:13:43;95598.84;;;9.61;99.64
42001;BME280;27689;48.390;10.856;2023-04-22T02:16:27;95613.31;;;9.55;100.00
42001;BME280;27689;48.390;10.856;2023-04-22T02:19:11;95610.03;;;9.53;100.00
42001;BME280;27689;48.390;10.856;2023-04-22T02:21:56;95604.47;;;9.48;99.87
42001;BME280;27689;48.390;10.856;2023-04-22T02:24:40;95610.66;;;9.47;100.00
42001;BME280;27689;48.390;10.856;2023-04-22T02:27:25;95606.41;;;9.46;99.60
42001;BME280;27689;48.390;10.856;2023-04-22T02:30:10;95609.19;;;9.45;99.58
42001;BME280;27689;48.390;10.856;2023-04-22T02:32:54;95599.69;;;9.44;98.80
42001;BME280;27689;48.390;10.856;2023-04-22T02:35:39;95600.28;;;9.38;98.95
42001;BME280;27689;48.390;10.856;2023-04-22T02:38:23;95606.47;;;9.37;99.32
42001;BME280;27689;48.390;10.856;2023-04-22T02:41:07;95615.00;;;9.21;100.00
42001;BME280;27689;48.390;10.856;2023-04-22T02:43:50;95605.91;;;9.25;100.00
42001;BME280;27689;48.390;10.856;2023-04-22T02:46:35;95610.31;;;9.25;100.00
42001;BME280;27689;48.390;10.856;2023-04-22T02:49:18;95602.63;;;9.23;100.00
42001;BME280;27689;48.390;10.856;2023-04-22T02:52:02;95609.97;;;9.19;100.00
42001;BME280;27689;48.390;10.856;2023-04-22T02:54:46;95607.34;;;9.19;100.00
42001;BME280;27689;48.390;10.856;2023-04-22T02:57:30;95601.59;;;9.16;100.00
42001;BME280;27689;48.390;10.856;2023-04-22T03:00:14;95598.16;;;9.15;100.00
42001;BME280;27689;48.390;10.856;2023-04-22T03:02:58;95594.72;;;9.15;100.00
42001;BME280;27689;48.390;10.856;2023-04-22T03:05:42;95606.44;;;9.11;100.00
42001;BME280;27689;48.390;10.856;2023-04-22T03:08:26;95604.75;;;9.02;100.00
42001;BME280;27689;48.390;10.856;2023-04-22T03:11:10;95604.75;;;9.02;100.00
42001;BME280;27689;48.390;10.856;2023-04-22T03:13:54;95603.91;;;9.01;100.00
42001;BME280;27689;48.390;10.856;2023-04-22T03:16:38;95608.09;;;8.94;100.00
42001;BME280;27689;48.390;10.856;2023-04-22T03:19:22;95606.44;;;8.93;100.00
42001;BME280;27689;48.390;10.856;2023-04-22T03:22:06;95609.88;;;8.94;100.00
42001;BME280;27689;48.390;10.856;2023-04-22T03:24:50;95615.56;;;8.89;100.00
42001;BME280;27689;48.390;10.856;2023-04-22T03:27:33;95602.13;;;8.84;100.00
42001;BME280;27689;48.390;10.856;2023-04-22T03:30:17;95602.13;;;8.84;100.00
42001;BME280;27689;48.390;10.856;2023-04-22T03:33:01;95612.66;;;8.74;100.00
42001;BME280;27689;48.390;10.856;2023-04-22T03:35:49;95602.09;;;8.66;100.00
42001;BME280;27689;48.390;10.856;2023-04-22T03:38:32;95602.78;;;8.68;100.00
42001;BME280;27689;48.390;10.856;2023-04-22T03:41:16;95596.34;;;8.63;100.00
42001;BME280;27689;48.390;10.856;2023-04-22T03:44:00;95596.13;;;8.56;100.00
42001;BME280;27689;48.390;10.856;2023-04-22T03:46:44;95592.00;;;8.54;100.00
42001;BME280;27689;48.390;10.856;2023-04-22T03:49:28;95602.31;;;8.55;100.00
42001;BME280;27689;48.390;10.856;2023-04-22T03:52:12;95595.06;;;8.49;100.00
42001;BME280;27689;48.390;10.856;2023-04-22T03:54:56;95598.63;;;8.48;100.00
42001;BME280;27689;48.390;10.856;2023-04-22T03:57:40;95593.28;;;8.49;100.00
42001;BME280;27689;48.390;10.856;2023-04-22T04:00:24;95600.75;;;8.44;100.00
42001;BME280;27689;48.390;10.856;2023-04-22T04:03:07;95592.38;;;8.41;100.00
42001;BME280;27689;48.390;10.856;2023-04-22T04:05:52;95593.63;;;8.37;100.00
42001;BME280;27689;48.390;10.856;2023-04-22T04:08:36;95596.53;;;8.34;100.00
42001;BME280;27689;48.390;10.856;2023-04-22T04:11:20;95601.06;;;8.32;100.00
42001;BME280;27689;48.390;10.856;2023-04-22T04:14:04;95601.59;;;8.35;100.00
42001;BME280;27689;48.390;10.856;2023-04-22T04:16:48;95604.34;;;8.34;100.00
42001;BME280;27689;48.390;10.856;2023-04-22T04:19:32;95598.44;;;8.32;100.00
42001;BME280;27689;48.390;10.856;2023-04-22T04:22:16;95597.75;;;8.30;100.00
42001;BME280;27689;48.390;10.856;2023-04-22T04:25:01;95606.41;;;8.30;100.00
42001;BME280;27689;48.390;10.856;2023-04-22T04:27:45;95604.63;;;8.31;100.00
42001;BME280;27689;48.390;10.856;2023-04-22T04:30:29;95607.91;;;8.33;100.00
42001;BME280;27689;48.390;10.856;2023-04-22T04:33:13;95606.56;;;8.29;100.00
42001;BME280;27689;48.390;10.856;2023-04-22T04:35:59;95610.97;;;8.28;100.00
42001;BME280;27689;48.390;10.856;2023-04-22T04:38:43;95601.34;;;8.29;100.00
42001;BME280;27689;48.390;10.856;2023-04-22T04:41:27;95595.97;;;8.30;100.00
42001;BME280;27689;48.390;10.856;2023-04-22T04:44:12;95603.53;;;8.33;100.00
42001;BME280;27689;48.390;10.856;2023-04-22T04:46:56;95597.19;;;8.36;100.00
42001;BME280;27689;48.390;10.856;2023-04-22T04:49:41;95592.81;;;8.36;100.00
42001;BME280;27689;48.390;10.856;2023-04-22T04:52:26;95601.44;;;8.37;100.00
42001;BME280;27689;48.390;10.856;2023-04-22T04:55:10;95601.16;;;8.40;100.00
42001;BME280;27689;48.390;10.856;2023-04-22T04:57:54;95590.72;;;8.40;100.00
42001;BME280;27689;48.390;10.856;2023-04-22T05:00:38;95601.91;;;8.50;100.00
42001;BME280;27689;48.390;10.856;2023-04-22T05:03:22;95595.44;;;8.54;100.00
42001;BME280;27689;48.390;10.856;2023-04-22T05:06:06;95602.03;;;8.58;100.00
42001;BME280;27689;48.390;10.856;2023-04-22T05:08:50;95602.25;;;8.65;100.00
42001;BME280;27689;48.390;10.856;2023-04-22T05:11:34;95606.34;;;8.67;100.00
42001;BME280;27689;48.390;10.856;2023-04-22T05:14:18;95612.84;;;8.81;100.00
42001;BME280;27689;48.390;10.856;2023-04-22T05:17:02;95618.31;;;8.88;100.00
42001;BME280;27689;48.390;10.856;2023-04-22T05:19:46;95621.00;;;8.96;100.00
42001;BME280;27689;48.390;10.856;2023-04-22T05:22:30;95629.75;;;9.04;100.00
42001;BME280;27689;48.390;10.856;2023-04-22T05:25:14;95630.78;;;9.11;100.00
42001;BME280;27689;48.390;10.856;2023-04-22T05:27:58;95636.75;;;9.22;100.00
42001;BME280;27689;48.390;10.856;2023-04-22T05:30:42;95637.66;;;9.30;100.00
42001;BME280;27689;48.390;10.856;2023-04-22T05:33:26;95642.59;;;9.33;100.00
42001;BME280;27689;48.390;10.856;2023-04-22T05:36:10;95633.59;;;9.36;100.00
42001;BME280;27689;48.390;10.856;2023-04-22T05:38:54;95638.09;;;9.43;100.00
42001;BME280;27689;48.390;10.856;2023-04-22T05:41:38;95632.91;;;9.51;100.00
42001;BME280;27689;48.390;10.856;2023-04-22T05:44:22;95630.50;;;9.58;100.00
42001;BME280;27689;48.390;10.856;2023-04-22T05:47:06;95640.72;;;9.69;100.00
42001;BME280;27689;48.390;10.856;2023-04-22T05:49:50;95639.97;;;9.77;100.00
42001;BME280;27689;48.390;10.856;2023-04-22T05:52:34;95630.38;;;9.85;100.00
42001;BME280;27689;48.390;10.856;2023-04-22T05:55:18;95630.09;;;9.97;100.00
42001;BME280;27689;48.390;10.856;2023-04-22T05:58:02;95636.25;;;10.13;100.00
42001;BME280;27689;48.390;10.856;2023-04-22T06:00:46;95622.09;;;10.24;100.00
42001;BME280;27689;48.390;10.856;2023-04-22T06:03:30;95627.22;;;10.34;100.00
42001;BME280;27689;48.390;10.856;2023-04-22T06:06:14;95623.34;;;10.46;100.00
42001;BME280;27689;48.390;10.856;2023-04-22T06:08:58;95629.09;;;10.57;100.00
42001;BME280;27689;48.390;10.856;2023-04-22T06:11:42;95632.75;;;10.73;98.85
42001;BME280;27689;48.390;10.856;2023-04-22T06:14:26;95632.63;;;10.82;97.72
42001;BME280;27689;48.390;10.856;2023-04-22T06:17:10;95626.59;;;10.90;95.22
42001;BME280;27689;48.390;10.856;2023-04-22T06:19:53;95620.88;;;10.94;96.62
42001;BME280;27689;48.390;10.856;2023-04-22T06:22:37;95625.13;;;11.04;93.57
42001;BME280;27689;48.390;10.856;2023-04-22T06:25:21;95623.53;;;11.11;94.21
42001;BME280;27689;48.390;10.856;2023-04-22T06:28:05;95629.75;;;11.26;94.44
42001;BME280;27689;48.390;10.856;2023-04-22T06:30:49;95629.25;;;11.47;92.27
42001;BME280;27689;48.390;10.856;2023-04-22T06:33:33;95635.00;;;11.50;90.26
42001;BME280;27689;48.390;10.856;2023-04-22T06:36:17;95626.97;;;11.52;89.85
42001;BME280;27689;48.390;10.856;2023-04-22T06:39:01;95634.00;;;11.59;88.37
42001;BME280;27689;48.390;10.856;2023-04-22T06:41:46;95644.50;;;11.68;88.97
42001;BME280;27689;48.390;10.856;2023-04-22T06:44:30;95630.72;;;11.74;86.73
42001;BME280;27689;48.390;10.856;2023-04-22T06:47:14;95626.97;;;11.76;87.87
42001;BME280;27689;48.390;10.856;2023-04-22T06:50:00;95629.25;;;11.95;85.73
42001;BME280;27689;48.390;10.856;2023-04-22T06:52:44;95637.25;;;12.10;83.23
42001;BME280;27689;48.390;10.856;2023-04-22T06:55:28;95643.47;;;12.17;85.29
42001;BME280;27689;48.390;10.856;2023-04-22T06:58:12;95635.75;;;12.24;85.01
42001;BME280;27689;48.390;10.856;2023-04-22T07:00:56;95641.16;;;12.30;84.89
42001;BME280;27689;48.390;10.856;2023-04-22T07:03:41;95631.09;;;12.42;81.67
42001;BME280;27689;48.390;10.856;2023-04-22T07:06:25;95629.19;;;12.67;80.93
42001;BME280;27689;48.390;10.856;2023-04-22T07:09:10;95625.47;;;12.84;78.82
42001;BME280;27689;48.390;10.856;2023-04-22T07:11:54;95630.59;;;13.08;79.62
42001;BME280;27689;48.390;10.856;2023-04-22T07:14:47;95630.34;;;13.26;75.55
42001;BME280;27689;48.390;10.856;2023-04-22T07:17:32;95631.88;;;13.44;75.54
42001;BME280;27689;48.390;10.856;2023-04-22T07:20:15;95628.34;;;13.51;78.66
42001;BME280;27689;48.390;10.856;2023-04-22T07:22:59;95623.25;;;13.72;76.59
42001;BME280;27689;48.390;10.856;2023-04-22T07:25:44;95624.81;;;13.96;76.47
42001;BME280;27689;48.390;10.856;2023-04-22T07:28:28;95615.38;;;14.02;76.40
42001;BME280;27689;48.390;10.856;2023-04-22T07:31:12;95610.94;;;14.17;71.81
42001;BME280;27689;48.390;10.856;2023-04-22T07:33:55;95616.75;;;14.27;72.85
42001;BME280;27689;48.390;10.856;2023-04-22T07:36:40;95624.16;;;14.46;73.12
42001;BME280;27689;48.390;10.856;2023-04-22T07:39:24;95612.69;;;14.69;72.08
42001;BME280;27689;48.390;10.856;2023-04-22T07:42:08;95615.72;;;14.87;71.17
42001;BME280;27689;48.390;10.856;2023-04-22T07:44:52;95613.81;;;14.96;69.11
42001;BME280;27689;48.390;10.856;2023-04-22T07:47:36;95615.41;;;15.11;68.41
42001;BME280;27689;48.390;10.856;2023-04-22T07:50:20;95613.72;;;15.25;67.10
42001;BME280;27689;48.390;10.856;2023-04-22T07:53:04;95611.88;;;15.47;68.17
42001;BME280;27689;48.390;10.856;2023-04-22T07:55:48;95615.38;;;15.69;63.37
42001;BME280;27689;48.390;10.856;2023-04-22T07:58:33;95617.69;;;15.78;61.67
42001;BME280;27689;48.390;10.856;2023-04-22T08:01:17;95607.09;;;16.00;63.04
42001;BME280;27689;48.390;10.856;2023-04-22T08:04:01;95610.19;;;16.10;59.60
42001;BME280;27689;48.390;10.856;2023-04-22T08:06:45;95608.00;;;16.20;62.46
42001;BME280;27689;48.390;10.856;2023-04-22T08:09:29;95610.84;;;16.46;60.81
42001;BME280;27689;48.390;10.856;2023-04-22T08:12:13;95605.38;;;16.54;61.54
42001;BME280;27689;48.390;10.856;2023-04-22T08:14:57;95612.78;;;16.66;57.13
42001;BME280;27689;48.390;10.856;2023-04-22T08:17:41;95616.75;;;16.89;58.98
42001;BME280;27689;48.390;10.856;2023-04-22T08:20:25;95619.63;;;17.01;56.86
42001;BME280;27689;48.390;10.856;2023-04-22T08:23:09;95619.28;;;17.17;54.60
42001;BME280;27689;48.390;10.856;2023-04-22T08:25:53;95608.75;;;17.44;58.50
42001;BME280;27689;48.390;10.856;2023-04-22T08:28:37;95599.78;;;17.51;56.77
42001;BME280;27689;48.390;10.856;2023-04-22T08:31:21;95599.22;;;17.76;59.71
42001;BME280;27689;48.390;10.856;2023-04-22T08:34:05;95602.88;;;17.81;54.86
42001;BME280;27689;48.390;10.856;2023-04-22T08:36:48;95602.66;;;17.96;54.89
42001;BME280;27689;48.390;10.856;2023-04-22T08:39:32;95603.06;;;18.00;53.47
42001;BME280;27689;48.390;10.856;2023-04-22T08:42:18;95595.13;;;18.00;56.98
42001;BME280;27689;48.390;10.856;2023-04-22T08:45:03;95600.44;;;18.00;55.76
42001;BME280;27689;48.390;10.856;2023-04-22T08:47:48;95601.03;;;18.02;53.72
42001;BME280;27689;48.390;10.856;2023-04-22T08:50:32;95598.78;;;18.12;56.89
42001;BME280;27689;48.390;10.856;2023-04-22T08:53:17;95601.59;;;18.30;54.65
42001;BME280;27689;48.390;10.856;2023-04-22T08:56:01;95602.59;;;18.42;51.45
42001;BME280;27689;48.390;10.856;2023-04-22T08:58:45;95602.56;;;18.69;51.74
42001;BME280;27689;48.390;10.856;2023-04-22T09:01:30;95610.28;;;18.77;51.14
42001;BME280;27689;48.390;10.856;2023-04-22T09:04:15;95598.50;;;19.11;50.94
42001;BME280;27689;48.390;10.856;2023-04-22T09:07:01;95604.25;;;19.01;49.35
42001;BME280;27689;48.390;10.856;2023-04-22T09:09:46;95598.97;;;19.32;52.54
42001;BME280;27689;48.390;10.856;2023-04-22T09:12:30;95591.94;;;19.45;51.68
42001;BME280;27689;48.390;10.856;2023-04-22T09:15:14;95590.00;;;19.65;48.09
42001;BME280;27689;48.390;10.856;2023-04-22T09:18:01;95578.09;;;19.99;49.57
42001;BME280;27689;48.390;10.856;2023-04-22T09:20:54;95587.41;;;20.08;49.36
42001;BME280;27689;48.390;10.856;2023-04-22T09:23:50;95583.66;;;20.16;49.99
42001;BME280;27689;48.390;10.856;2023-04-22T09:26:38;95581.50;;;20.49;51.99
42001;BME280;27689;48.390;10.856;2023-04-22T09:29:29;95582.38;;;20.80;47.34
42001;BME280;27689;48.390;10.856;2023-04-22T09:32:13;95580.03;;;20.71;48.37
42001;BME280;27689;48.390;10.856;2023-04-22T09:34:58;95575.31;;;21.03;51.21
42001;BME280;27689;48.390;10.856;2023-04-22T09:37:42;95573.84;;;21.37;46.36
42001;BME280;27689;48.390;10.856;2023-04-22T09:40:27;95567.31;;;21.52;48.69
42001;BME280;27689;48.390;10.856;2023-04-22T09:43:17;95575.41;;;21.57;48.07
42001;BME280;27689;48.390;10.856;2023-04-22T09:46:02;95575.81;;;21.12;43.64
42001;BME280;27689;48.390;10.856;2023-04-22T09:48:46;95565.03;;;21.07;45.13
42001;BME280;27689;48.390;10.856;2023-04-22T09:51:32;95573.25;;;21.05;46.89
42001;BME280;27689;48.390;10.856;2023-04-22T09:54:16;95569.41;;;21.01;45.90
42001;BME280;27689;48.390;10.856;2023-04-22T09:57:01;95560.19;;;21.16;45.72
42001;BME280;27689;48.390;10.856;2023-04-22T09:59:45;95559.66;;;21.25;45.17
42001;BME280;27689;48.390;10.856;2023-04-22T10:02:29;95557.53;;;21.45;45.60
42001;BME280;27689;48.390;10.856;2023-04-22T10:05:13;95552.91;;;21.53;45.30
42001;BME280;27689;48.390;10.856;2023-04-22T10:07:57;95555.88;;;21.86;45.31
42001;BME280;27689;48.390;10.856;2023-04-22T10:10:42;95557.94;;;21.84;44.47
42001;BME280;27689;48.390;10.856;2023-04-22T10:13:26;95545.19;;;21.86;43.69
42001;BME280;27689;48.390;10.856;2023-04-22T10:16:10;95554.47;;;21.72;43.88
42001;BME280;27689;48.390;10.856;2023-04-22T10:18:55;95549.94;;;21.72;45.91
42001;BME280;27689;48.390;10.856;2023-04-22T10:21:40;95542.81;;;22.08;48.70
42001;BME280;27689;48.390;10.856;2023-04-22T10:24:27;95541.97;;;22.31;44.68
42001;BME280;27689;48.390;10.856;2023-04-22T10:27:11;95538.84;;;22.22;44.56
42001;BME280;27689;48.390;10.856;2023-04-22T10:29:55;95531.16;;;22.49;44.50
42001;BME280;27689;48.390;10.856;2023-04-22T10:32:40;95537.09;;;22.91;44.32
42001;BME280;27689;48.390;10.856;2023-04-22T10:35:27;95528.56;;;23.06;45.57
42001;BME280;27689;48.390;10.856;2023-04-22T10:38:14;95530.38;;;22.89;42.80
42001;BME280;27689;48.390;10.856;2023-04-22T10:40:59;95525.28;;;22.75;41.45
42001;BME280;27689;48.390;10.856;2023-04-22T10:43:46;95532.00;;;22.90;44.00
42001;BME280;27689;48.390;10.856;2023-04-22T10:49:23;95528.28;;;23.19;46.45
42001;BME280;27689;48.390;10.856;2023-04-22T10:52:26;95531.19;;;23.17;41.67
42001;BME280;27689;48.390;10.856;2023-04-22T10:55:10;95537.13;;;23.36;43.14
42001;BME280;27689;48.390;10.856;2023-04-22T10:57:54;95532.25;;;23.33;43.04
42001;BME280;27689;48.390;10.856;2023-04-22T11:00:40;95527.69;;;23.17;42.77
42001;BME280;27689;48.390;10.856;2023-04-22T11:03:29;95525.88;;;23.34;41.32
42001;BME280;27689;48.390;10.856;2023-04-22T11:06:15;95527.47;;;22.90;41.82
42001;BME280;27689;48.390;10.856;2023-04-22T11:09:08;95524.19;;;23.00;42.29
42001;BME280;27689;48.390;10.856;2023-04-22T11:11:53;95528.03;;;22.29;41.53
42001;BME280;27689;48.390;10.856;2023-04-22T11:14:37;95520.84;;;21.82;44.37
42001;BME280;27689;48.390;10.856;2023-04-22T11:17:20;95523.06;;;22.21;41.88
42001;BME280;27689;48.390;10.856;2023-04-22T11:20:06;95523.63;;;22.46;45.07
42001;BME280;27689;48.390;10.856;2023-04-22T11:22:53;95521.19;;;22.33;42.53
42001;BME280;27689;48.390;10.856;2023-04-22T11:25:37;95526.41;;;22.51;44.11
42001;BME280;27689;48.390;10.856;2023-04-22T11:28:21;95522.53;;;22.59;43.81
42001;BME280;27689;48.390;10.856;2023-04-22T11:31:07;95518.84;;;22.48;39.62
42001;BME280;27689;48.390;10.856;2023-04-22T11:33:58;95524.09;;;22.31;39.68
42001;BME280;27689;48.390;10.856;2023-04-22T11:36:44;95522.56;;;22.47;42.05
42001;BME280;27689;48.390;10.856;2023-04-22T11:39:37;95514.78;;;22.45;39.52
42001;BME280;27689;48.390;10.856;2023-04-22T11:42:21;95513.00;;;22.23;39.15
42001;BME280;27689;48.390;10.856;2023-04-22T11:45:08;95507.25;;;22.54;41.10
42001;BME280;27689;48.390;10.856;2023-04-22T11:47:52;95511.53;;;22.55;37.77
42001;BME280;27689;48.390;10.856;2023-04-22T11:50:38;95504.06;;;22.80;39.46
42001;BME280;27689;48.390;10.856;2023-04-22T11:53:22;95500.72;;;23.18;42.97
42001;BME280;27689;48.390;10.856;2023-04-22T11:56:06;95500.94;;;23.29;39.45
42001;BME280;27689;48.390;10.856;2023-04-22T11:58:50;95507.56;;;23.26;40.68
42001;BME280;27689;48.390;10.856;2023-04-22T12:01:34;95502.81;;;23.00;39.81
42001;BME280;27689;48.390;10.856;2023-04-22T12:04:21;95499.69;;;23.19;38.12
42001;BME280;27689;48.390;10.856;2023-04-22T12:07:06;95498.47;;;23.10;38.01
42001;BME280;27689;48.390;10.856;2023-04-22T12:09:53;95496.28;;;22.79;35.47
42001;BME280;27689;48.390;10.856;2023-04-22T12:12:40;95495.03;;;22.58;35.60
42001;BME280;27689;48.390;10.856;2023-04-22T12:15:24;95491.13;;;22.89;36.88
42001;BME280;27689;48.390;10.856;2023-04-22T12:18:08;95476.84;;;23.12;36.03
42001;BME280;27689;48.390;10.856;2023-04-22T12:20:52;95478.63;;;23.23;35.24
42001;BME280;27689;48.390;10.856;2023-04-22T12:23:41;95467.19;;;23.56;38.27
42001;BME280;27689;48.390;10.856;2023-04-22T12:26:26;95474.53;;;23.82;37.28
42001;BME280;27689;48.390;10.856;2023-04-22T12:29:10;95473.25;;;23.51;36.91
42001;BME280;27689;48.390;10.856;2023-04-22T12:31:54;95466.38;;;23.55;36.34
42001;BME280;27689;48.390;10.856;2023-04-22T12:34:39;95474.22;;;23.79;38.07
42001;BME280;27689;48.390;10.856;2023-04-22T12:37:23;95466.66;;;23.92;36.80
42001;BME280;27689;48.390;10.856;2023-04-22T12:40:07;95471.25;;;24.14;39.64
42001;BME280;27689;48.390;10.856;2023-04-22T12:42:52;95474.59;;;24.43;38.62
42001;BME280;27689;48.390;10.856;2023-04-22T12:45:36;95464.13;;;24.63;37.53
42001;BME280;27689;48.390;10.856;2023-04-22T12:48:20;95472.81;;;24.48;32.54
42001;BME280;27689;48.390;10.856;2023-04-22T12:51:05;95471.34;;;24.41;35.16
42001;BME280;27689;48.390;10.856;2023-04-22T12:53:49;95468.19;;;24.44;35.27
42001;BME280;27689;48.390;10.856;2023-04-22T12:56:32;95460.03;;;24.82;35.87
42001;BME280;27689;48.390;10.856;2023-04-22T12:59:17;95462.13;;;24.75;35.10
42001;BME280;27689;48.390;10.856;2023-04-22T13:02:02;95458.06;;;25.21;34.62
42001;BME280;27689;48.390;10.856;2023-04-22T13:04:45;95447.84;;;25.50;34.86
42001;BME280;27689;48.390;10.856;2023-04-22T13:07:30;95452.50;;;25.01;36.42
42001;BME280;27689;48.390;10.856;2023-04-22T13:10:14;95458.22;;;24.88;30.12
42001;BME280;27689;48.390;10.856;2023-04-22T13:12:59;95445.34;;;25.12;30.11
42001;BME280;27689;48.390;10.856;2023-04-22T13:15:46;95449.38;;;24.87;30.52
42001;BME280;27689;48.390;10.856;2023-04-22T13:18:35;95434.19;;;25.20;29.91
42001;BME280;27689;48.390;10.856;2023-04-22T13:21:19;95426.28;;;25.08;31.30
42001;BME280;27689;48.390;10.856;2023-04-22T13:24:03;95441.09;;;25.16;30.66
42001;BME280;27689;48.390;10.856;2023-04-22T13:26:47;95434.22;;;25.25;31.62
42001;BME280;27689;48.390;10.856;2023-04-22T13:29:32;95428.03;;;25.56;30.88
42001;BME280;27689;48.390;10.856;2023-04-22T13:32:16;95429.06;;;25.50;31.09
42001;BME280;27689;48.390;10.856;2023-04-22T13:35:00;95428.19;;;25.77;32.20
42001;BME280;27689;48.390;10.856;2023-04-22T13:37:44;95425.84;;;25.53;30.50
42001;BME280;27689;48.390;10.856;2023-04-22T13:40:29;95423.00;;;24.74;29.72
42001;BME280;27689;48.390;10.856;2023-04-22T13:43:13;95425.25;;;24.39;31.08
42001;BME280;27689;48.390;10.856;2023-04-22T13:45:56;95427.16;;;24.21;30.17
42001;BME280;27689;48.390;10.856;2023-04-22T13:48:40;95427.38;;;24.37;31.26
42001;BME280;27689;48.390;10.856;2023-04-22T13:51:24;95410.88;;;24.23;29.00
42001;BME280;27689;48.390;10.856;2023-04-22T13:54:08;95426.72;;;24.08;30.25
42001;BME280;27689;48.390;10.856;2023-04-22T13:56:53;95419.19;;;23.66;28.99
42001;BME280;27689;48.390;10.856;2023-04-22T13:59:37;95421.78;;;23.61;29.13
42001;BME280;27689;48.390;10.856;2023-04-22T14:02:21;95418.44;;;23.87;29.08
42001;BME280;27689;48.390;10.856;2023-04-22T14:05:05;95412.22;;;23.65;28.14
42001;BME280;27689;48.390;10.856;2023-04-22T14:07:50;95416.50;;;23.49;25.56
42001;BME280;27689;48.390;10.856;2023-04-22T14:10:33;95412.94;;;23.61;26.72
42001;BME280;27689;48.390;10.856;2023-04-22T14:13:17;95411.06;;;23.78;27.18
42001;BME280;27689;48.390;10.856;2023-04-22T14:16:03;95411.16;;;23.33;27.24
42001;BME280;27689;48.390;10.856;2023-04-22T14:18:50;95408.34;;;23.39;27.26
42001;BME280;27689;48.390;10.856;2023-04-22T14:21:34;95405.44;;;23.24;26.19
42001;BME280;27689;48.390;10.856;2023-04-22T14:24:18;95412.31;;;23.20;27.05